Latest Weather Observations for Essendon Airport

IDV60901

Issued at 7:01 am EST Sunday 24 July 2016 (issued every 10 minutes, with the page automatically refreshed every 10 minutes)

About weather observations | Map of Melbourne area stations | Latest observations for Melbourne area | Other Formats
Station Details ID: 086038 Name: ESSENDON AIRPORT Lat: -37.73 Lon: 144.91 Height: 78.4 m
Data from the previous 72 hours. | See also: Recent months at Essendon Airport
Date/Time
EST
Temp
°C
App
Temp
°C
Dew
Point
°C
Rel
Hum
%
Delta-T
°C
Wind Press
QNH
hPa
Press
MSL
hPa
Rain since
9am
mm
Dir  Spd
km/h
Gust
km/h
Spd
kts
Gust
kts
24/07:00am 3.7 -0.4 2.1 89 0.6 N 13 15 7 8 1010.8 1010.9 0.8
24/06:30am 4.2 -0.6 2.4 88 0.7 N 17 20 9 11 1010.6 1010.7 0.8
24/06:00am 4.1 -0.7 2.6 90 0.6 N 17 22 9 12 1010.6 1010.7 0.8
24/05:30am 3.6 -1.3 2.1 90 0.6 N 17 20 9 11 1010.8 1010.9 0.8
24/05:00am 3.7 -0.8 1.9 88 0.7 N 15 19 8 10 1011.1 1011.2 0.8
24/04:30am 3.7 -0.4 2.1 89 0.6 N 13 17 7 9 1011.6 1011.8 0.8
24/04:00am 4.2 -1.1 2.1 86 0.8 N 19 24 10 13 1011.9 1012.1 0.8
24/03:30am 4.3 -0.2 2.2 86 0.8 N 15 19 8 10 1012.0 1012.2 0.8
24/03:00am 4.5 -0.4 2.0 84 1.0 N 17 22 9 12 1012.0 1012.2 0.8
24/02:30am 4.6 0.1 2.0 83 1.0 N 15 19 8 10 1012.2 1012.4 0.8
24/02:00am 5.1 0.2 2.3 82 1.1 NNW 17 20 9 11 1012.2 1012.4 0.8
24/01:30am 4.9 0.4 2.3 83 1.1 NNW 15 19 8 10 1012.0 1012.2 0.8
24/01:00am 5.1 0.7 2.8 85 0.9 NNW 15 19 8 10 1012.2 1012.4 0.8
24/12:30am 4.4 0.4 2.6 88 0.7 N 13 15 7 8 1012.4 1012.6 0.8
24/12:00am 4.6 0.9 2.6 87 0.8 NNW 11 15 6 8 1012.7 1012.9 0.8
 
Date/Time
EST
Temp
°C
App
Temp
°C
Dew
Point
°C
Rel
Hum
%
Delta-T
°C
Wind Press
QNH
hPa
Press
MSL
hPa
Rain since
9am
mm
Dir  Spd
km/h
Gust
km/h
Spd
kts
Gust
kts
23/11:30pm 5.1 1.1 3.0 86 0.9 N 13 17 7 9 1012.9 1013.1 0.8
23/11:00pm 6.0 2.0 3.0 81 1.2 NNW 13 17 7 9 1013.0 1013.2 0.8
23/10:30pm 6.6 2.4 3.6 81 1.3 NW 15 20 8 11 1012.9 1013.1 0.8
23/10:00pm 7.1 2.5 3.7 79 1.5 NW 17 24 9 13 1012.8 1013.0 0.8
23/09:30pm 7.2 2.7 4.0 80 1.4 NW 17 22 9 12 1012.9 1013.1 0.8
23/09:00pm 7.3 2.8 4.3 81 1.3 NW 17 22 9 12 1013.0 1013.2 0.8
23/08:30pm 7.1 3.5 4.8 85 1.0 NW 13 17 7 9 1012.8 1013.0 0.8
23/08:00pm 6.7 2.6 4.5 86 1.0 NW 15 20 8 11 1012.3 1012.5 0.8
23/07:30pm 6.5 1.7 4.8 89 0.7 WNW 19 22 10 12 1012.3 1012.5 0.8
23/07:00pm 7.6 2.8 4.4 80 1.4 W 19 24 10 13 1012.1 1012.3 0.6
23/06:30pm 7.3 3.2 4.3 81 1.3 WNW 15 20 8 11 1011.5 1011.7 0.6
23/06:00pm 7.2 2.1 4.2 81 1.3 WNW 20 26 11 14 1011.2 1011.3 0.6
23/05:30pm 7.7 1.8 4.1 78 1.6 WNW 24 32 13 17 1010.7 1010.8 0.6
23/05:00pm 7.8 2.0 4.6 80 1.4 W 24 32 13 17 1010.3 1010.4 0.6
23/04:30pm 7.8 1.3 4.6 80 1.4 W 28 35 15 19 1009.8 1009.9 0.6
23/04:00pm 8.1 2.0 5.0 81 1.4 W 26 37 14 20 1009.7 1009.8 0.6
23/03:30pm 7.7 2.9 5.7 87 0.9 W 20 28 11 15 1009.2 1009.3 0.4
23/03:28pm 7.5 2.3 5.6 88 0.9 W 22 30 12 16 1009.2 1009.3 0.4
23/03:18pm 7.3 -0.1 5.1 86 1.0 W 33 52 18 28 1009.2 1009.3 0.4
23/03:15pm 7.0 -1.2 4.7 85 1.0 W 37 52 20 28 1009.2 1009.3 0.4
23/03:00pm 8.6 0.9 3.6 71 2.2 WNW 33 44 18 24 1008.7 1008.8 0.0
23/02:33pm 8.4 0.9 4.6 77 1.7 W 33 52 18 28 1008.3 1008.4 0.0
23/02:30pm 8.3 0.4 4.3 76 1.8 W 35 52 19 28 1008.3 1008.4 0.0
23/02:25pm 8.4 0.9 4.6 77 1.7 W 33 46 18 25 1008.2 1008.3 0.0
23/02:14pm 7.6 -2.3 4.7 82 1.3 WSW 46 67 25 36 1008.1 1008.2 0.0
23/02:08pm 9.1 0.2 2.9 65 2.7 W 39 63 21 34 1007.9 1008.0 0.0
23/02:00pm 10.0 0.9 1.6 56 3.5 W 39 50 21 27 1007.4 1007.5 0.0
23/01:30pm 10.6 2.3 2.4 57 3.5 W 35 48 19 26 1007.2 1007.3 0.0
23/01:18pm 10.8 2.6 2.6 57 3.5 WNW 35 54 19 29 1007.1 1007.2 0.0
23/01:00pm 9.8 1.2 2.6 61 3.1 W 37 52 20 28 1007.3 1007.4 0.0
23/12:30pm 9.3 0.7 2.4 62 2.9 W 37 48 20 26 1007.3 1007.4 0.0
23/12:00pm 9.5 2.6 4.5 71 2.2 WNW 30 43 16 23 1007.3 1007.4 0.0
23/11:30am 8.3 0.7 3.0 69 2.3 W 32 50 17 27 1007.4 1007.5 0.0
23/11:26am 8.1 1.3 3.0 70 2.2 W 28 46 15 25 1007.5 1007.6 0.0
23/11:00am 7.4 -1.6 2.7 72 2.0 WSW 39 54 21 29 1007.4 1007.5 0.0
23/10:30am 8.4 0.0 1.6 62 2.8 W 35 48 19 26 1006.7 1006.8 0.0
23/10:00am 8.9 2.4 2.5 64 2.7 W 26 37 14 20 1005.9 1006.0 0.0
23/09:30am 8.5 1.5 2.1 64 2.7 W 28 41 15 22 1005.2 1005.3 0.0
23/09:00am 7.8 1.7 2.7 70 2.2 W 24 32 13 17 1004.7 1004.8 1.2
23/08:30am 7.0 1.3 2.9 75 1.7 W 22 33 12 18 1004.1 1004.2 1.2
23/08:00am 6.8 1.5 3.2 78 1.5 WNW 20 32 11 17 1003.5 1003.6 1.2
23/07:30am 6.9 1.8 3.9 81 1.3 W 20 30 11 16 1003.0 1003.1 1.2
23/07:00am 7.1 1.0 4.8 85 1.0 W 26 35 14 19 1002.3 1002.4 1.2
23/06:30am 7.5 0.2 4.6 82 1.3 W 32 44 17 24 1001.3 1001.5 1.2
23/06:09am 7.6 0.2 5.1 84 1.1 W 33 54 18 29 1000.4 1000.5 1.2
23/06:00am 7.8 1.0 5.1 83 1.2 W 30 44 16 24 1000.1 1000.2 1.2
23/05:30am 7.8 1.3 4.9 82 1.3 W 28 39 15 21 999.2 999.3 1.2
23/05:00am 8.3 1.9 5.1 80 1.4 W 28 37 15 20 998.5 998.6 1.2
23/04:30am 8.3 1.9 5.4 82 1.3 W 28 37 15 20 997.9 998.0 1.2
23/04:00am 8.1 2.1 5.4 83 1.2 W 26 39 14 21 997.2 997.3 1.2
23/03:30am 8.3 1.5 5.2 81 1.4 W 30 39 16 21 996.6 996.7 1.2
23/03:00am 8.7 0.6 5.4 80 1.5 W 37 50 20 27 996.1 996.2 1.2
23/02:33am 9.3 1.5 5.1 75 1.9 WNW 35 54 19 29 995.2 995.3 1.2
23/02:30am 9.3 1.5 4.9 74 2.0 WNW 35 52 19 28 995.1 995.2 1.2
23/02:20am 9.4 2.9 4.8 73 2.1 WNW 28 50 15 27 994.6 994.7 1.2
23/02:00am 9.4 3.2 4.2 70 2.3 NW 26 37 14 20 994.1 994.2 1.2
23/01:30am 9.4 3.3 4.6 72 2.1 NW 26 37 14 20 993.4 993.5 1.2
23/01:00am 9.4 1.8 5.8 78 1.7 NW 35 54 19 29 993.6 993.7 1.2
23/12:45am 10.2 3.0 6.0 75 1.9 NW 33 61 18 33 993.9 994.0 1.2
23/12:41am 10.6 6.0 6.6 76 1.9 NW 20 44 11 24 993.9 994.0 1.2
23/12:30am 9.3 7.5 7.9 91 0.7 NNW 7 17 4 9 993.8 993.9 1.2
23/12:00am 8.9 6.3 7.7 92 0.6 W 11 17 6 9 993.7 993.8 1.2
 
Date/Time
EST
Temp
°C
App
Temp
°C
Dew
Point
°C
Rel
Hum
%
Delta-T
°C
Wind Press
QNH
hPa
Press
MSL
hPa
Rain since
9am
mm
Dir  Spd
km/h
Gust
km/h
Spd
kts
Gust
kts
22/11:30pm 9.2 6.6 7.8 91 0.7 SW 11 13 6 7 993.6 993.7 1.2
22/11:00pm 9.5 6.8 7.3 86 1.1 NW 11 15 6 8 993.6 993.7 1.2
22/10:30pm 10.0 4.8 7.4 84 1.2 WNW 24 35 13 19 993.7 993.8 1.2
22/10:00pm 11.3 6.5 8.7 84 1.3 NNW 24 35 13 19 993.8 993.9 0.8
22/09:30pm 11.6 8.6 9.2 85 1.2 NNW 15 26 8 14 993.9 994.0 0.6
22/09:00pm 10.9 9.1 9.3 90 0.8 NNE 9 13 5 7 994.3 994.4 0.6
22/08:30pm 10.8 9.2 8.9 88 0.9 N 7 9 4 5 994.9 995.0 0.6
22/08:00pm 10.3 8.3 8.6 89 0.8 NE 9 11 5 6 994.7 994.8 0.6
22/07:30pm 11.0 9.3 8.2 83 1.4 NNW 7 11 4 6 995.1 995.2 0.6
22/07:00pm 11.3 7.7 8.2 81 1.5 NW 17 24 9 13 995.3 995.4 0.6
22/06:30pm 11.0 8.2 8.6 85 1.2 WNW 13 24 7 13 995.4 995.5 0.6
22/06:13pm 11.3 7.2 8.5 83 1.4 WSW 20 39 11 21 996.0 996.1 0.6
22/06:00pm 12.2 9.3 8.1 76 2.0 NW 13 19 7 10 995.6 995.7 0.6
22/05:30pm 12.4 9.1 7.9 74 2.2 NW 15 24 8 13 995.2 995.3 0.6
22/05:00pm 12.8 9.1 7.9 72 2.4 NW 17 22 9 12 995.0 995.1 0.6
22/04:30pm 12.4 7.8 8.1 75 2.1 NW 22 32 12 17 995.0 995.1 0.6
22/04:00pm 12.0 7.1 8.5 79 1.8 NW 24 33 13 18 995.1 995.2 0.6
22/03:30pm 11.8 6.6 8.8 82 1.5 NW 26 39 14 21 995.4 995.5 0.6
22/03:07pm 11.8 5.0 9.2 84 1.3 WNW 35 48 19 26 995.3 995.4 0.4
22/03:01pm 11.6 3.2 8.8 83 1.4 W 43 61 23 33 995.4 995.5 0.4
22/03:00pm 11.6 3.0 8.8 83 1.4 W 44 61 24 33 995.4 995.5 0.4
22/02:55pm 11.4 0.8 8.3 81 1.5 W 54 76 29 41 995.5 995.6 0.2
22/02:49pm 12.0 1.4 8.3 78 1.8 W 54 82 29 44 995.4 995.5 0.0
22/02:46pm 12.8 3.1 7.3 69 2.7 W 48 82 26 44 995.2 995.3 0.0
22/02:44pm 14.7 5.9 7.3 61 3.7 WNW 43 78 23 42 995.1 995.2 0.0
22/02:36pm 16.5 9.1 8.2 58 4.2 NW 37 56 20 30 994.5 994.6 0.0
22/02:30pm 16.6 9.6 8.6 59 4.1 NW 35 52 19 28 994.4 994.5 0.0
22/02:00pm 16.7 9.4 8.7 59 4.2 NW 37 46 20 25 994.4 994.5 0.0
22/01:33pm 16.5 9.2 8.7 60 4.0 NW 37 63 20 34 994.6 994.7 0.0
22/01:30pm 16.4 9.6 9.1 62 3.8 NW 35 48 19 26 994.7 994.8 0.0
22/01:08pm 16.1 10.8 9.8 66 3.3 NW 28 46 15 25 994.9 995.0 0.0
22/01:00pm 16.1 10.8 10.0 67 3.2 NW 28 41 15 22 994.9 995.0 0.0
22/12:36pm 15.9 9.8 9.8 67 3.2 NW 32 50 17 27 995.2 995.3 0.0
22/12:30pm 15.9 9.2 9.8 67 3.2 NW 35 50 19 27 995.3 995.4 0.0
22/12:00pm 15.7 9.6 9.8 68 3.1 NW 32 52 17 28 995.6 995.7 0.0
22/11:57am 15.6 10.3 9.9 69 3.0 NW 28 48 15 26 995.6 995.7 0.0
22/11:30am 15.2 9.9 10.0 71 2.7 NW 28 39 15 21 996.2 996.3 0.0
22/11:00am 15.1 8.9 9.5 69 2.9 NW 32 43 17 23 996.5 996.6 0.0
22/10:52am 15.2 8.4 9.1 67 3.1 NW 35 54 19 29 996.0 996.1 0.0
22/10:30am 15.4 8.8 10.0 70 2.8 NW 35 48 19 26 996.3 996.4 0.0
22/10:16am 15.6 9.7 10.6 72 2.7 NNW 32 50 17 27 996.6 996.7 0.0
22/10:00am 15.5 10.1 10.9 74 2.5 NNW 30 46 16 25 996.4 996.5 0.0
22/09:55am 15.7 10.7 11.1 74 2.5 NNW 28 46 15 25 996.7 996.8 0.0
22/09:30am 16.1 13.1 11.9 76 2.3 NNW 19 32 10 17 997.5 997.6 0.0
22/09:00am 15.8 12.9 12.9 83 1.6 NNW 20 26 11 14 997.2 997.3 9.2
22/08:30am 15.7 12.8 12.8 83 1.6 NNW 20 30 11 16 997.1 997.2 9.2
22/08:00am 16.2 12.2 12.9 81 1.9 NNW 26 39 14 21 997.4 997.5 9.2
22/07:30am 15.7 14.4 15.7 100 0.0 NNW 17 28 9 15 997.7 997.8 9.0
22/07:00am 15.7 14.4 15.7 100 0.0 NNW 17 24 9 13 997.7 997.8 9.0
22/06:50am 15.5 14.5 15.5 100 0.0 WNW 15 22 8 12 997.9 998.0 8.6
22/06:30am 15.4 13.9 15.4 100 0.0 N 17 24 9 13 998.0 998.1 7.2
22/06:28am 15.4 13.6 15.4 100 0.0 N 19 28 10 15 997.8 997.9 6.2
22/06:00am 15.3 12.1 15.3 100 0.0 N 26 39 14 21 998.0 998.1 4.0
22/05:30am 15.2 11.2 15.2 100 0.0 N 30 43 16 23 998.1 998.2 2.0
22/05:00am 15.4 10.4 15.1 98 0.2 N 35 50 19 27 998.2 998.3 1.0
22/04:46am 15.5 10.4 14.9 96 0.3 N 35 54 19 29 998.5 998.6 0.8
22/04:30am 15.6 9.7 14.8 95 0.5 N 39 54 21 29 998.8 998.9 0.6
22/04:00am 15.4 8.5 14.6 95 0.5 N 44 67 24 36 999.0 999.1 0.6
22/03:41am 15.0 8.3 14.5 97 0.3 N 43 61 23 33 999.8 999.9 0.6
22/03:30am 15.2 8.4 14.2 94 0.6 N 43 61 23 33 1000.4 1000.5 0.6
22/03:12am 15.1 9.0 14.1 94 0.6 N 39 57 21 31 1001.2 1001.4 0.6
22/03:00am 15.0 8.8 13.9 93 0.6 N 39 56 21 30 1001.4 1001.6 0.6
22/02:30am 14.8 8.6 13.7 93 0.6 NNE 39 59 21 32 1002.3 1002.4 0.6
22/02:04am 14.8 8.1 13.5 92 0.7 N 41 59 22 32 1003.2 1003.3 0.6
22/02:00am 14.8 7.5 13.5 92 0.7 N 44 61 24 33 1003.3 1003.4 0.6
22/01:48am 14.9 8.5 13.3 90 0.9 N 39 57 21 31 1003.5 1003.6 0.6
22/01:41am 15.0 8.3 13.4 90 0.9 N 41 56 22 30 1003.4 1003.5 0.6
22/01:30am 15.0 7.3 13.4 90 0.9 N 46 67 25 36 1003.1 1003.2 0.6
22/01:00am 14.8 8.7 13.0 89 1.0 N 37 59 20 32 1003.8 1003.9 0.6
22/12:43am 14.9 7.0 12.8 87 1.2 N 46 65 25 35 1004.2 1004.3 0.6
22/12:30am 14.7 6.9 12.9 89 1.0 N 46 63 25 34 1004.4 1004.5 0.6
22/12:00am 14.6 8.2 13.1 91 0.8 N 39 59 21 32 1004.9 1005.0 0.6
 
Date/Time
EST
Temp
°C
App
Temp
°C
Dew
Point
°C
Rel
Hum
%
Delta-T
°C
Wind Press
QNH
hPa
Press
MSL
hPa
Rain since
9am
mm
Dir  Spd
km/h
Gust
km/h
Spd
kts
Gust
kts
21/11:30pm 14.5 8.0 13.0 91 0.8 N 39 57 21 31 1005.9 1006.0 0.6
21/11:00pm 14.8 7.9 12.8 88 1.1 N 41 63 22 34 1006.5 1006.6 0.6
21/10:31pm 14.7 8.1 12.6 87 1.2 N 39 61 21 33 1006.2 1006.3 0.6
21/10:30pm 14.8 8.2 12.7 87 1.2 N 39 52 21 28 1006.3 1006.4 0.6
21/10:00pm 14.7 9.4 12.6 87 1.2 NNE 32 50 17 27 1006.9 1007.0 0.6
21/09:30pm 14.9 9.1 12.6 86 1.3 N 35 54 19 29 1008.1 1008.2 0.6
21/09:10pm 14.7 9.8 12.6 87 1.2 N 30 48 16 26 1008.2 1008.3 0.6
21/09:00pm 14.6 9.6 12.3 86 1.3 N 30 43 16 23 1008.8 1008.9 0.6
21/08:30pm 14.3 10.8 12.3 88 1.1 NNE 22 33 12 18 1009.3 1009.4 0.6
21/08:00pm 14.3 10.5 12.3 88 1.1 N 24 35 13 19 1009.8 1009.9 0.6
21/07:30pm 14.4 10.6 12.3 87 1.1 NNE 24 33 13 18 1009.9 1010.0 0.6
21/07:00pm 14.3 10.4 12.2 87 1.1 NNE 24 32 13 17 1010.5 1010.6 0.6
21/06:30pm 14.3 10.8 12.2 87 1.1 NNE 22 32 12 17 1010.5 1010.6 0.6
21/06:00pm 14.6 11.0 11.7 83 1.6 NNE 22 32 12 17 1010.7 1010.8 0.6
21/05:30pm 14.8 11.8 11.8 82 1.6 N 19 28 10 15 1011.3 1011.4 0.6
21/05:00pm 15.4 11.8 11.8 79 2.0 N 22 33 12 18 1011.0 1011.1 0.6
21/04:30pm 15.7 11.4 11.9 78 2.1 N 26 39 14 21 1010.9 1011.0 0.6
21/04:00pm 16.1 12.2 12.1 77 2.2 N 24 35 13 19 1011.1 1011.2 0.6
21/03:30pm 16.9 12.6 12.2 74 2.6 N 26 37 14 20 1011.4 1011.5 0.6
21/03:00pm 16.8 12.2 12.3 75 2.5 N 28 35 15 19 1011.5 1011.7 0.6
21/02:30pm 16.4 12.0 11.8 74 2.5 N 26 37 14 20 1011.5 1011.7 0.6
21/02:00pm 17.0 13.2 12.3 74 2.6 N 24 35 13 19 1011.8 1012.0 0.6
21/01:30pm 16.7 12.5 12.3 75 2.4 N 26 39 14 21 1012.2 1012.4 0.6
21/01:00pm 16.1 11.8 12.1 77 2.2 N 26 37 14 20 1012.8 1013.0 0.6
21/12:30pm 15.6 10.7 12.4 81 1.8 N 30 41 16 22 1013.6 1013.8 0.6
21/12:00pm 15.3 11.5 12.4 83 1.6 N 24 32 13 17 1014.1 1014.3 0.6
21/11:30am 13.6 9.8 12.3 92 0.7 N 24 33 13 18 1014.7 1014.9 0.6
21/11:00am 13.4 10.4 12.5 94 0.5 N 20 32 11 17 1015.2 1015.3 0.6
21/10:30am 13.2 9.9 12.9 98 0.2 N 22 28 12 15 1015.3 1015.4 0.6
21/10:00am 12.0 9.4 12.0 100 0.0 NNE 17 26 9 14 1015.6 1015.7 0.4
21/09:30am 11.8 9.9 11.8 100 0.0 N 13 20 7 11 1016.1 1016.2 0.2
21/09:00am 10.7 9.8 10.7 100 0.0 ENE 6 9 3 5 1016.2 1016.3 3.0
21/08:59am 10.6 9.7 10.6 100 0.0 ENE 6 9 3 5 1016.2 1016.3 3.0
21/08:30am 9.6 7.8 9.6 100 0.0 ENE 9 13 5 7 1016.5 1016.6 2.8
21/08:24am 9.5 7.3 9.5 100 0.0 ENE 11 13 6 7 1016.6 1016.7 2.6
21/08:05am 9.6 8.2 9.6 100 0.0 NE 7 11 4 6 1016.5 1016.6 2.4
21/08:00am 9.5 8.1 9.5 100 0.0 NE 7 9 4 5 1016.4 1016.5 2.4
21/07:30am 8.4 5.6 8.4 100 0.0 ENE 13 15 7 8 1016.6 1016.7 1.2
21/07:08am 8.3 7.9 8.3 100 0.0 CALM 0 6 0 3 1016.9 1017.0 0.6

Latest Capital City Observations: Canberra | Sydney | Melbourne | Brisbane | Adelaide | Perth | Hobart | Darwin

Other Formats:

Comma delimited format used in spreadsheet applications
http://www.bom.gov.au/fwo/IDV60901/IDV60901.95866.axf

JavaScript Object Notation format (JSON) in row-major order
http://www.bom.gov.au/fwo/IDV60901/IDV60901.95866.json